sensor_id;sensor_type;location;lat;lon;timestamp;pressure;altitude;pressure_sealevel;temperature;humidity
2184;BME280;1098;48.940;8.962;2023-04-07T00:01:24;98524.78;;;8.56;100.00
2184;BME280;1098;48.940;8.962;2023-04-07T00:03:54;98517.69;;;8.04;100.00
2184;BME280;1098;48.940;8.962;2023-04-07T00:06:23;98523.97;;;8.56;100.00
2184;BME280;1098;48.940;8.962;2023-04-07T00:08:51;98514.94;;;8.31;100.00
2184;BME280;1098;48.940;8.962;2023-04-07T00:11:19;98512.75;;;8.66;100.00
2184;BME280;1098;48.940;8.962;2023-04-07T00:13:47;98505.31;;;8.54;100.00
2184;BME280;1098;48.940;8.962;2023-04-07T00:16:15;98509.03;;;8.60;100.00
2184;BME280;1098;48.940;8.962;2023-04-07T00:18:43;98510.38;;;8.18;100.00
2184;BME280;1098;48.940;8.962;2023-04-07T00:21:12;98514.31;;;8.35;100.00
2184;BME280;1098;48.940;8.962;2023-04-07T00:23:40;98506.78;;;8.95;100.00
2184;BME280;1098;48.940;8.962;2023-04-07T00:26:11;98502.22;;;8.95;100.00
2184;BME280;1098;48.940;8.962;2023-04-07T00:28:43;98498.69;;;8.95;100.00
2184;BME280;1098;48.940;8.962;2023-04-07T00:31:11;98498.97;;;9.18;100.00
2184;BME280;1098;48.940;8.962;2023-04-07T00:33:39;98495.50;;;8.15;100.00
2184;BME280;1098;48.940;8.962;2023-04-07T00:36:07;98492.63;;;8.10;100.00
2184;BME280;1098;48.940;8.962;2023-04-07T00:38:38;98498.13;;;8.93;100.00
2184;BME280;1098;48.940;8.962;2023-04-07T00:41:06;98488.59;;;8.90;100.00
2184;BME280;1098;48.940;8.962;2023-04-07T00:43:34;98490.50;;;8.83;100.00
2184;BME280;1098;48.940;8.962;2023-04-07T00:46:02;98486.06;;;7.80;100.00
2184;BME280;1098;48.940;8.962;2023-04-07T00:48:31;98480.00;;;7.98;100.00
2184;BME280;1098;48.940;8.962;2023-04-07T00:50:59;98476.16;;;7.47;100.00
2184;BME280;1098;48.940;8.962;2023-04-07T00:53:27;98475.03;;;7.94;100.00
2184;BME280;1098;48.940;8.962;2023-04-07T00:55:57;98469.44;;;8.03;100.00
2184;BME280;1098;48.940;8.962;2023-04-07T00:58:25;98476.06;;;8.07;100.00
2184;BME280;1098;48.940;8.962;2023-04-07T01:00:54;98467.44;;;7.78;100.00
2184;BME280;1098;48.940;8.962;2023-04-07T01:03:28;98461.59;;;7.94;100.00
2184;BME280;1098;48.940;8.962;2023-04-07T01:05:59;98462.09;;;7.65;100.00
2184;BME280;1098;48.940;8.962;2023-04-07T01:08:32;98455.22;;;7.82;100.00
2184;BME280;1098;48.940;8.962;2023-04-07T01:11:07;98453.06;;;8.11;100.00
2184;BME280;1098;48.940;8.962;2023-04-07T01:13:41;98444.72;;;8.39;100.00
2184;BME280;1098;48.940;8.962;2023-04-07T01:16:26;98441.47;;;8.68;100.00
2184;BME280;1098;48.940;8.962;2023-04-07T01:18:56;98438.00;;;8.54;100.00
2184;BME280;1098;48.940;8.962;2023-04-07T01:21:25;98435.53;;;8.53;100.00
2184;BME280;1098;48.940;8.962;2023-04-07T01:24:01;98428.22;;;8.67;100.00
2184;BME280;1098;48.940;8.962;2023-04-07T01:26:32;98422.81;;;8.67;100.00
2184;BME280;1098;48.940;8.962;2023-04-07T01:29:10;98423.03;;;8.14;100.00
2184;BME280;1098;48.940;8.962;2023-04-07T01:31:44;98419.06;;;7.52;100.00
2184;BME280;1098;48.940;8.962;2023-04-07T01:34:13;98416.34;;;8.36;100.00
2184;BME280;1098;48.940;8.962;2023-04-07T01:36:42;98421.78;;;8.16;100.00
2184;BME280;1098;48.940;8.962;2023-04-07T01:39:10;98418.88;;;7.40;100.00
2184;BME280;1098;48.940;8.962;2023-04-07T01:41:39;98424.22;;;8.31;100.00
2184;BME280;1098;48.940;8.962;2023-04-07T01:44:08;98417.56;;;7.76;100.00
2184;BME280;1098;48.940;8.962;2023-04-07T01:46:36;98420.66;;;7.86;100.00
2184;BME280;1098;48.940;8.962;2023-04-07T01:49:05;98419.03;;;7.72;100.00
2184;BME280;1098;48.940;8.962;2023-04-07T01:51:34;98420.00;;;7.90;100.00
2184;BME280;1098;48.940;8.962;2023-04-07T01:54:02;98409.28;;;7.77;100.00
2184;BME280;1098;48.940;8.962;2023-04-07T01:56:31;98407.06;;;7.61;100.00
2184;BME280;1098;48.940;8.962;2023-04-07T01:59:03;98409.44;;;7.96;100.00
2184;BME280;1098;48.940;8.962;2023-04-07T02:01:31;98403.22;;;8.08;100.00
2184;BME280;1098;48.940;8.962;2023-04-07T02:04:01;98397.22;;;8.00;100.00
2184;BME280;1098;48.940;8.962;2023-04-07T02:06:37;98403.53;;;8.25;100.00
2184;BME280;1098;48.940;8.962;2023-04-07T02:09:06;98397.75;;;8.21;100.00
2184;BME280;1098;48.940;8.962;2023-04-07T02:11:37;98390.09;;;8.25;100.00
2184;BME280;1098;48.940;8.962;2023-04-07T02:14:07;98389.91;;;8.20;100.00
2184;BME280;1098;48.940;8.962;2023-04-07T02:16:54;98391.78;;;8.13;100.00
2184;BME280;1098;48.940;8.962;2023-04-07T02:19:22;98388.44;;;8.24;100.00
2184;BME280;1098;48.940;8.962;2023-04-07T02:21:52;98387.97;;;8.40;100.00
2184;BME280;1098;48.940;8.962;2023-04-07T02:24:20;98385.34;;;8.14;100.00
2184;BME280;1098;48.940;8.962;2023-04-07T02:26:48;98382.31;;;8.04;100.00
2184;BME280;1098;48.940;8.962;2023-04-07T02:29:16;98382.13;;;7.92;100.00
2184;BME280;1098;48.940;8.962;2023-04-07T02:31:45;98385.31;;;8.27;100.00
2184;BME280;1098;48.940;8.962;2023-04-07T02:34:13;98386.56;;;8.24;100.00
2184;BME280;1098;48.940;8.962;2023-04-07T02:36:41;98379.44;;;8.50;100.00
2184;BME280;1098;48.940;8.962;2023-04-07T02:39:11;98380.41;;;8.55;100.00
2184;BME280;1098;48.940;8.962;2023-04-07T02:41:40;98368.66;;;8.50;100.00
2184;BME280;1098;48.940;8.962;2023-04-07T02:44:08;98372.75;;;8.52;100.00
2184;BME280;1098;48.940;8.962;2023-04-07T02:46:36;98371.66;;;8.22;100.00
2184;BME280;1098;48.940;8.962;2023-04-07T02:49:04;98376.34;;;7.95;100.00
2184;BME280;1098;48.940;8.962;2023-04-07T02:51:32;98374.75;;;7.81;100.00
2184;BME280;1098;48.940;8.962;2023-04-07T02:54:00;98362.13;;;7.75;100.00
2184;BME280;1098;48.940;8.962;2023-04-07T02:56:30;98365.56;;;8.02;100.00
2184;BME280;1098;48.940;8.962;2023-04-07T02:58:58;98362.91;;;8.40;100.00
2184;BME280;1098;48.940;8.962;2023-04-07T03:01:27;98366.72;;;8.12;100.00
2184;BME280;1098;48.940;8.962;2023-04-07T03:03:55;98355.69;;;8.34;100.00
2184;BME280;1098;48.940;8.962;2023-04-07T03:06:25;98359.78;;;7.91;100.00
2184;BME280;1098;48.940;8.962;2023-04-07T03:09:01;98357.50;;;7.95;100.00
2184;BME280;1098;48.940;8.962;2023-04-07T03:11:33;98353.81;;;7.89;100.00
2184;BME280;1098;48.940;8.962;2023-04-07T03:14:02;98359.34;;;8.01;100.00
2184;BME280;1098;48.940;8.962;2023-04-07T03:16:31;98351.28;;;7.94;100.00
2184;BME280;1098;48.940;8.962;2023-04-07T03:19:05;98349.19;;;8.10;100.00
2184;BME280;1098;48.940;8.962;2023-04-07T03:21:36;98347.34;;;8.04;100.00
2184;BME280;1098;48.940;8.962;2023-04-07T03:24:05;98351.06;;;8.47;100.00
2184;BME280;1098;48.940;8.962;2023-04-07T03:26:37;98342.13;;;8.09;100.00
2184;BME280;1098;48.940;8.962;2023-04-07T03:29:13;98343.41;;;8.44;100.00
2184;BME280;1098;48.940;8.962;2023-04-07T03:31:42;98340.31;;;8.03;100.00
2184;BME280;1098;48.940;8.962;2023-04-07T03:34:13;98340.91;;;8.05;100.00
2184;BME280;1098;48.940;8.962;2023-04-07T03:36:41;98341.47;;;8.13;100.00
2184;BME280;1098;48.940;8.962;2023-04-07T03:39:09;98341.34;;;8.46;100.00
2184;BME280;1098;48.940;8.962;2023-04-07T03:41:38;98337.59;;;8.47;100.00
2184;BME280;1098;48.940;8.962;2023-04-07T03:44:07;98334.53;;;7.92;100.00
2184;BME280;1098;48.940;8.962;2023-04-07T03:46:36;98333.38;;;8.20;100.00
2184;BME280;1098;48.940;8.962;2023-04-07T03:49:07;98331.22;;;7.90;100.00
2184;BME280;1098;48.940;8.962;2023-04-07T03:51:35;98329.13;;;7.99;100.00
2184;BME280;1098;48.940;8.962;2023-04-07T03:54:10;98331.00;;;7.99;100.00
2184;BME280;1098;48.940;8.962;2023-04-07T03:56:42;98331.72;;;8.19;100.00
2184;BME280;1098;48.940;8.962;2023-04-07T03:59:12;98334.53;;;7.92;100.00
2184;BME280;1098;48.940;8.962;2023-04-07T04:01:51;98340.50;;;8.08;100.00
2184;BME280;1098;48.940;8.962;2023-04-07T04:04:19;98336.47;;;8.61;100.00
2184;BME280;1098;48.940;8.962;2023-04-07T04:06:48;98332.34;;;8.21;100.00
2184;BME280;1098;48.940;8.962;2023-04-07T04:09:33;98329.25;;;8.55;100.00
2184;BME280;1098;48.940;8.962;2023-04-07T04:12:03;98326.63;;;8.49;100.00
2184;BME280;1098;48.940;8.962;2023-04-07T04:14:34;98323.81;;;8.31;100.00
2184;BME280;1098;48.940;8.962;2023-04-07T04:17:04;98318.59;;;8.36;100.00
2184;BME280;1098;48.940;8.962;2023-04-07T04:19:40;98319.38;;;8.05;100.00
2184;BME280;1098;48.940;8.962;2023-04-07T04:22:16;98317.41;;;8.25;100.00
2184;BME280;1098;48.940;8.962;2023-04-07T04:24:51;98321.59;;;8.14;100.00
2184;BME280;1098;48.940;8.962;2023-04-07T04:27:23;98323.22;;;7.77;100.00
2184;BME280;1098;48.940;8.962;2023-04-07T04:29:57;98330.28;;;8.16;100.00
2184;BME280;1098;48.940;8.962;2023-04-07T04:32:34;98321.19;;;8.11;100.00
2184;BME280;1098;48.940;8.962;2023-04-07T04:35:04;98320.31;;;7.79;100.00
2184;BME280;1098;48.940;8.962;2023-04-07T04:37:39;98328.06;;;7.49;100.00
2184;BME280;1098;48.940;8.962;2023-04-07T04:40:10;98327.66;;;7.52;100.00
2184;BME280;1098;48.940;8.962;2023-04-07T04:42:40;98328.31;;;7.34;100.00
2184;BME280;1098;48.940;8.962;2023-04-07T04:45:10;98334.06;;;7.51;100.00
2184;BME280;1098;48.940;8.962;2023-04-07T04:47:43;98337.63;;;7.38;100.00
2184;BME280;1098;48.940;8.962;2023-04-07T04:50:11;98346.75;;;7.24;100.00
2184;BME280;1098;48.940;8.962;2023-04-07T04:52:41;98349.19;;;7.39;100.00
2184;BME280;1098;48.940;8.962;2023-04-07T04:55:17;98346.31;;;7.40;100.00
2184;BME280;1098;48.940;8.962;2023-04-07T04:57:47;98355.41;;;7.33;100.00
2184;BME280;1098;48.940;8.962;2023-04-07T05:00:21;98353.75;;;7.45;100.00
2184;BME280;1098;48.940;8.962;2023-04-07T05:02:55;98354.53;;;7.58;100.00
2184;BME280;1098;48.940;8.962;2023-04-07T05:05:25;98344.41;;;7.54;100.00
2184;BME280;1098;48.940;8.962;2023-04-07T05:07:54;98343.78;;;7.58;100.00
2184;BME280;1098;48.940;8.962;2023-04-07T05:10:28;98346.25;;;7.67;100.00
2184;BME280;1098;48.940;8.962;2023-04-07T05:12:57;98347.44;;;7.71;100.00
2184;BME280;1098;48.940;8.962;2023-04-07T05:15:25;98347.06;;;8.12;100.00
2184;BME280;1098;48.940;8.962;2023-04-07T05:17:53;98346.25;;;8.11;100.00
2184;BME280;1098;48.940;8.962;2023-04-07T05:20:25;98345.81;;;8.14;100.00
2184;BME280;1098;48.940;8.962;2023-04-07T05:22:54;98342.19;;;7.96;100.00
2184;BME280;1098;48.940;8.962;2023-04-07T05:25:28;98330.81;;;8.32;100.00
2184;BME280;1098;48.940;8.962;2023-04-07T05:28:01;98331.50;;;8.20;100.00
2184;BME280;1098;48.940;8.962;2023-04-07T05:30:33;98331.19;;;8.04;100.00
2184;BME280;1098;48.940;8.962;2023-04-07T05:33:01;98331.00;;;8.43;100.00
2184;BME280;1098;48.940;8.962;2023-04-07T05:35:38;98329.41;;;8.29;100.00
2184;BME280;1098;48.940;8.962;2023-04-07T05:38:08;98336.06;;;8.20;100.00
2184;BME280;1098;48.940;8.962;2023-04-07T05:40:38;98336.00;;;8.33;100.00
2184;BME280;1098;48.940;8.962;2023-04-07T05:43:11;98326.56;;;8.11;100.00
2184;BME280;1098;48.940;8.962;2023-04-07T05:45:39;98334.72;;;8.42;100.00
2184;BME280;1098;48.940;8.962;2023-04-07T05:48:07;98335.13;;;8.01;100.00
2184;BME280;1098;48.940;8.962;2023-04-07T05:50:42;98340.22;;;7.71;100.00
2184;BME280;1098;48.940;8.962;2023-04-07T05:53:14;98351.28;;;7.37;100.00
2184;BME280;1098;48.940;8.962;2023-04-07T05:55:43;98348.34;;;7.51;100.00
2184;BME280;1098;48.940;8.962;2023-04-07T05:58:20;98358.13;;;7.26;100.00
2184;BME280;1098;48.940;8.962;2023-04-07T06:00:52;98360.16;;;7.44;100.00
2184;BME280;1098;48.940;8.962;2023-04-07T06:03:21;98359.66;;;7.73;100.00
2184;BME280;1098;48.940;8.962;2023-04-07T06:06:08;98361.09;;;7.69;100.00
2184;BME280;1098;48.940;8.962;2023-04-07T06:08:38;98349.84;;;7.92;100.00
2184;BME280;1098;48.940;8.962;2023-04-07T06:11:06;98350.25;;;7.96;100.00
2184;BME280;1098;48.940;8.962;2023-04-07T06:13:35;98348.06;;;7.79;100.00
2184;BME280;1098;48.940;8.962;2023-04-07T06:16:04;98347.97;;;7.35;100.00
2184;BME280;1098;48.940;8.962;2023-04-07T06:18:32;98355.16;;;7.61;100.00
2184;BME280;1098;48.940;8.962;2023-04-07T06:21:00;98358.19;;;8.28;100.00
2184;BME280;1098;48.940;8.962;2023-04-07T06:23:28;98354.53;;;7.52;100.00
2184;BME280;1098;48.940;8.962;2023-04-07T06:25:57;98361.09;;;8.27;100.00
2184;BME280;1098;48.940;8.962;2023-04-07T06:28:25;98337.25;;;9.37;100.00
2184;BME280;1098;48.940;8.962;2023-04-07T06:30:55;98345.75;;;8.66;100.00
2184;BME280;1098;48.940;8.962;2023-04-07T06:33:25;98346.50;;;8.03;100.00
2184;BME280;1098;48.940;8.962;2023-04-07T06:35:55;98351.50;;;7.93;100.00
2184;BME280;1098;48.940;8.962;2023-04-07T06:38:24;98354.41;;;8.43;100.00
2184;BME280;1098;48.940;8.962;2023-04-07T06:40:52;98361.34;;;8.12;100.00
2184;BME280;1098;48.940;8.962;2023-04-07T06:43:20;98359.97;;;7.97;100.00
2184;BME280;1098;48.940;8.962;2023-04-07T06:46:02;98357.91;;;7.92;100.00
2184;BME280;1098;48.940;8.962;2023-04-07T06:48:30;98354.59;;;8.48;100.00
2184;BME280;1098;48.940;8.962;2023-04-07T06:50:58;98356.56;;;8.59;100.00
2184;BME280;1098;48.940;8.962;2023-04-07T06:53:26;98357.06;;;8.49;100.00
2184;BME280;1098;48.940;8.962;2023-04-07T06:56:01;98351.72;;;8.43;100.00
2184;BME280;1098;48.940;8.962;2023-04-07T06:58:29;98349.28;;;8.28;100.00
2184;BME280;1098;48.940;8.962;2023-04-07T07:01:00;98352.88;;;8.53;100.00
2184;BME280;1098;48.940;8.962;2023-04-07T07:03:30;98343.94;;;8.59;100.00
2184;BME280;1098;48.940;8.962;2023-04-07T07:05:58;98346.97;;;8.94;100.00
2184;BME280;1098;48.940;8.962;2023-04-07T07:08:27;98337.53;;;9.10;100.00
2184;BME280;1098;48.940;8.962;2023-04-07T07:10:56;98327.22;;;10.47;100.00
2184;BME280;1098;48.940;8.962;2023-04-07T07:13:24;98323.06;;;10.86;100.00
2184;BME280;1098;48.940;8.962;2023-04-07T07:15:53;98336.81;;;10.73;100.00
2184;BME280;1098;48.940;8.962;2023-04-07T07:18:21;98328.75;;;10.96;100.00
2184;BME280;1098;48.940;8.962;2023-04-07T07:20:51;98312.41;;;11.38;100.00
2184;BME280;1098;48.940;8.962;2023-04-07T07:23:19;98337.47;;;11.56;100.00
2184;BME280;1098;48.940;8.962;2023-04-07T07:25:47;98342.44;;;10.29;100.00
2184;BME280;1098;48.940;8.962;2023-04-07T07:28:15;98340.06;;;11.16;100.00
2184;BME280;1098;48.940;8.962;2023-04-07T07:30:44;98340.72;;;10.77;100.00
2184;BME280;1098;48.940;8.962;2023-04-07T07:33:12;98341.16;;;10.32;100.00
2184;BME280;1098;48.940;8.962;2023-04-07T07:35:43;98336.81;;;10.73;100.00
2184;BME280;1098;48.940;8.962;2023-04-07T07:38:12;98339.91;;;10.46;100.00
2184;BME280;1098;48.940;8.962;2023-04-07T07:40:40;98343.03;;;10.31;100.00
2184;BME280;1098;48.940;8.962;2023-04-07T07:43:08;98346.19;;;10.58;100.00
2184;BME280;1098;48.940;8.962;2023-04-07T07:45:36;98350.31;;;10.31;100.00
2184;BME280;1098;48.940;8.962;2023-04-07T07:48:04;98344.78;;;10.67;100.00
2184;BME280;1098;48.940;8.962;2023-04-07T07:50:32;98347.09;;;10.94;100.00
2184;BME280;1098;48.940;8.962;2023-04-07T07:53:00;98334.84;;;11.03;100.00
2184;BME280;1098;48.940;8.962;2023-04-07T07:55:30;98343.94;;;11.20;100.00
2184;BME280;1098;48.940;8.962;2023-04-07T07:57:58;98345.16;;;10.71;100.00
2184;BME280;1098;48.940;8.962;2023-04-07T08:00:26;98338.41;;;11.27;100.00
2184;BME280;1098;48.940;8.962;2023-04-07T08:02:55;98343.47;;;11.35;100.00
2184;BME280;1098;48.940;8.962;2023-04-07T08:05:23;98349.41;;;10.79;100.00
2184;BME280;1098;48.940;8.962;2023-04-07T08:07:51;98339.59;;;11.31;100.00
2184;BME280;1098;48.940;8.962;2023-04-07T08:10:21;98339.34;;;11.32;100.00
2184;BME280;1098;48.940;8.962;2023-04-07T08:12:52;98350.75;;;11.11;100.00
2184;BME280;1098;48.940;8.962;2023-04-07T08:15:20;98348.84;;;11.23;100.00
2184;BME280;1098;48.940;8.962;2023-04-07T08:17:48;98343.59;;;11.17;100.00
2184;BME280;1098;48.940;8.962;2023-04-07T08:20:16;98349.69;;;11.35;100.00
2184;BME280;1098;48.940;8.962;2023-04-07T08:22:45;98348.38;;;11.26;100.00
2184;BME280;1098;48.940;8.962;2023-04-07T08:25:13;98348.28;;;11.80;100.00
2184;BME280;1098;48.940;8.962;2023-04-07T08:27:43;98348.75;;;11.53;100.00
2184;BME280;1098;48.940;8.962;2023-04-07T08:30:13;98353.91;;;12.01;100.00
2184;BME280;1098;48.940;8.962;2023-04-07T08:32:41;98366.06;;;11.41;100.00
2184;BME280;1098;48.940;8.962;2023-04-07T08:35:10;98360.28;;;11.14;100.00
2184;BME280;1098;48.940;8.962;2023-04-07T08:37:38;98364.06;;;11.36;100.00
2184;BME280;1098;48.940;8.962;2023-04-07T08:40:07;98363.94;;;11.78;100.00
2184;BME280;1098;48.940;8.962;2023-04-07T08:42:37;98361.53;;;12.04;100.00
2184;BME280;1098;48.940;8.962;2023-04-07T08:45:07;98363.97;;;12.18;100.00
2184;BME280;1098;48.940;8.962;2023-04-07T08:47:37;98360.38;;;12.29;100.00
2184;BME280;1098;48.940;8.962;2023-04-07T08:50:07;98364.75;;;12.30;100.00
2184;BME280;1098;48.940;8.962;2023-04-07T08:52:39;98359.97;;;12.94;100.00
2184;BME280;1098;48.940;8.962;2023-04-07T08:55:08;98362.13;;;12.35;100.00
2184;BME280;1098;48.940;8.962;2023-04-07T08:57:36;98354.53;;;11.80;100.00
2184;BME280;1098;48.940;8.962;2023-04-07T09:00:05;98364.91;;;12.97;100.00
2184;BME280;1098;48.940;8.962;2023-04-07T09:02:34;98367.41;;;13.15;100.00
2184;BME280;1098;48.940;8.962;2023-04-07T09:05:04;98364.81;;;12.07;100.00
2184;BME280;1098;48.940;8.962;2023-04-07T09:07:33;98367.91;;;13.46;100.00
2184;BME280;1098;48.940;8.962;2023-04-07T09:10:02;98368.38;;;13.09;100.00
2184;BME280;1098;48.940;8.962;2023-04-07T09:12:30;98366.53;;;14.03;100.00
2184;BME280;1098;48.940;8.962;2023-04-07T09:14:58;98368.09;;;13.11;100.00
2184;BME280;1098;48.940;8.962;2023-04-07T09:17:27;98370.16;;;13.70;100.00
2184;BME280;1098;48.940;8.962;2023-04-07T09:19:58;98368.09;;;13.99;100.00
2184;BME280;1098;48.940;8.962;2023-04-07T09:22:37;98365.25;;;13.34;100.00
2184;BME280;1098;48.940;8.962;2023-04-07T09:25:10;98360.50;;;13.24;100.00
2184;BME280;1098;48.940;8.962;2023-04-07T09:27:38;98367.50;;;12.92;100.00
2184;BME280;1098;48.940;8.962;2023-04-07T09:30:09;98365.59;;;12.76;100.00
2184;BME280;1098;48.940;8.962;2023-04-07T09:32:38;98366.31;;;12.99;100.00
2184;BME280;1098;48.940;8.962;2023-04-07T09:35:07;98369.63;;;13.18;100.00
2184;BME280;1098;48.940;8.962;2023-04-07T09:37:35;98375.44;;;14.21;100.00
2184;BME280;1098;48.940;8.962;2023-04-07T09:40:06;98367.72;;;14.34;100.00
2184;BME280;1098;48.940;8.962;2023-04-07T09:42:34;98367.56;;;13.42;100.00
2184;BME280;1098;48.940;8.962;2023-04-07T09:45:05;98377.03;;;13.78;100.00
2184;BME280;1098;48.940;8.962;2023-04-07T09:47:33;98370.88;;;12.82;100.00
2184;BME280;1098;48.940;8.962;2023-04-07T09:50:02;98373.63;;;14.04;100.00
2184;BME280;1098;48.940;8.962;2023-04-07T09:52:48;98371.72;;;14.27;100.00
2184;BME280;1098;48.940;8.962;2023-04-07T09:55:19;98363.91;;;14.52;100.00
2184;BME280;1098;48.940;8.962;2023-04-07T09:57:48;98366.41;;;13.38;100.00
2184;BME280;1098;48.940;8.962;2023-04-07T10:00:17;98370.91;;;14.48;100.00
2184;BME280;1098;48.940;8.962;2023-04-07T10:02:45;98374.53;;;14.54;100.00
2184;BME280;1098;48.940;8.962;2023-04-07T10:05:14;98350.88;;;14.32;100.00
2184;BME280;1098;48.940;8.962;2023-04-07T10:07:42;98374.06;;;14.89;100.00
2184;BME280;1098;48.940;8.962;2023-04-07T10:10:10;98372.16;;;14.19;100.00
2184;BME280;1098;48.940;8.962;2023-04-07T10:12:40;98371.59;;;13.39;100.00
2184;BME280;1098;48.940;8.962;2023-04-07T10:15:09;98371.81;;;13.71;100.00
2184;BME280;1098;48.940;8.962;2023-04-07T10:17:39;98377.59;;;13.08;100.00
2184;BME280;1098;48.940;8.962;2023-04-07T10:20:08;98372.34;;;13.35;100.00
2184;BME280;1098;48.940;8.962;2023-04-07T10:22:36;98376.22;;;12.94;100.00
2184;BME280;1098;48.940;8.962;2023-04-07T10:25:05;98376.81;;;13.13;100.00
2184;BME280;1098;48.940;8.962;2023-04-07T10:27:38;98379.66;;;12.72;100.00
2184;BME280;1098;48.940;8.962;2023-04-07T10:30:12;98379.78;;;12.94;100.00
2184;BME280;1098;48.940;8.962;2023-04-07T10:32:45;98381.56;;;12.44;100.00
2184;BME280;1098;48.940;8.962;2023-04-07T10:35:13;98373.94;;;13.02;100.00
2184;BME280;1098;48.940;8.962;2023-04-07T10:37:44;98374.22;;;13.18;100.00
2184;BME280;1098;48.940;8.962;2023-04-07T10:40:33;98387.41;;;13.26;100.00
2184;BME280;1098;48.940;8.962;2023-04-07T10:43:02;98385.47;;;12.36;100.00
2184;BME280;1098;48.940;8.962;2023-04-07T10:48:19;98396.03;;;11.97;100.00
2184;BME280;1098;48.940;8.962;2023-04-07T10:53:33;98387.56;;;11.70;100.00
2184;BME280;1098;48.940;8.962;2023-04-07T10:56:01;98388.50;;;11.18;100.00
2184;BME280;1098;48.940;8.962;2023-04-07T10:58:30;98383.31;;;11.16;100.00
2184;BME280;1098;48.940;8.962;2023-04-07T11:01:16;98387.47;;;11.42;100.00
2184;BME280;1098;48.940;8.962;2023-04-07T11:03:58;98386.03;;;11.51;100.00
2184;BME280;1098;48.940;8.962;2023-04-07T11:06:27;98384.28;;;11.22;100.00
2184;BME280;1098;48.940;8.962;2023-04-07T11:08:55;98378.16;;;11.26;100.00
2184;BME280;1098;48.940;8.962;2023-04-07T11:11:39;98384.06;;;11.58;100.00
2184;BME280;1098;48.940;8.962;2023-04-07T11:14:08;98384.63;;;11.72;100.00
2184;BME280;1098;48.940;8.962;2023-04-07T11:16:38;98370.84;;;11.74;100.00
2184;BME280;1098;48.940;8.962;2023-04-07T11:19:08;98383.53;;;12.08;100.00
2184;BME280;1098;48.940;8.962;2023-04-07T11:21:38;98372.06;;;11.78;100.00
2184;BME280;1098;48.940;8.962;2023-04-07T11:24:09;98372.25;;;12.39;100.00
2184;BME280;1098;48.940;8.962;2023-04-07T11:26:37;98370.50;;;14.39;100.00
2184;BME280;1098;48.940;8.962;2023-04-07T11:29:06;98376.63;;;12.29;100.00
2184;BME280;1098;48.940;8.962;2023-04-07T11:31:34;98381.56;;;12.89;100.00
2184;BME280;1098;48.940;8.962;2023-04-07T11:34:03;98378.28;;;13.87;100.00
2184;BME280;1098;48.940;8.962;2023-04-07T11:36:33;98381.34;;;13.57;100.00
2184;BME280;1098;48.940;8.962;2023-04-07T11:39:02;98380.31;;;13.41;100.00
2184;BME280;1098;48.940;8.962;2023-04-07T11:41:31;98377.44;;;13.31;100.00
2184;BME280;1098;48.940;8.962;2023-04-07T11:44:03;98374.13;;;13.63;100.00
2184;BME280;1098;48.940;8.962;2023-04-07T11:46:31;98375.06;;;12.90;100.00
2184;BME280;1098;48.940;8.962;2023-04-07T11:49:09;98379.69;;;12.32;100.00
2184;BME280;1098;48.940;8.962;2023-04-07T11:51:39;98384.50;;;12.02;100.00
2184;BME280;1098;48.940;8.962;2023-04-07T11:54:07;98387.81;;;11.92;100.00
2184;BME280;1098;48.940;8.962;2023-04-07T11:56:42;98382.84;;;12.01;100.00
2184;BME280;1098;48.940;8.962;2023-04-07T11:59:18;98385.19;;;12.09;100.00
2184;BME280;1098;48.940;8.962;2023-04-07T12:01:48;98390.31;;;11.82;100.00
2184;BME280;1098;48.940;8.962;2023-04-07T12:04:17;98396.41;;;11.89;100.00
2184;BME280;1098;48.940;8.962;2023-04-07T12:06:47;98397.56;;;11.70;100.00
2184;BME280;1098;48.940;8.962;2023-04-07T12:09:28;98402.06;;;11.76;100.00
2184;BME280;1098;48.940;8.962;2023-04-07T12:11:58;98399.09;;;11.89;100.00
2184;BME280;1098;48.940;8.962;2023-04-07T12:14:26;98390.88;;;11.96;100.00
2184;BME280;1098;48.940;8.962;2023-04-07T12:16:54;98391.09;;;11.94;100.00
2184;BME280;1098;48.940;8.962;2023-04-07T12:19:24;98398.41;;;11.94;100.00
2184;BME280;1098;48.940;8.962;2023-04-07T12:21:54;98406.59;;;12.22;100.00
2184;BME280;1098;48.940;8.962;2023-04-07T12:24:22;98403.53;;;12.59;100.00
2184;BME280;1098;48.940;8.962;2023-04-07T12:26:50;98404.72;;;12.23;100.00
2184;BME280;1098;48.940;8.962;2023-04-07T12:29:19;98402.00;;;12.51;100.00
2184;BME280;1098;48.940;8.962;2023-04-07T12:31:47;98413.91;;;12.22;100.00
2184;BME280;1098;48.940;8.962;2023-04-07T12:34:17;98416.03;;;11.73;100.00
2184;BME280;1098;48.940;8.962;2023-04-07T12:36:45;98419.50;;;12.32;100.00
2184;BME280;1098;48.940;8.962;2023-04-07T12:39:15;98422.03;;;12.50;100.00
2184;BME280;1098;48.940;8.962;2023-04-07T12:41:45;98411.09;;;13.02;100.00
2184;BME280;1098;48.940;8.962;2023-04-07T12:44:16;98414.75;;;12.79;100.00
2184;BME280;1098;48.940;8.962;2023-04-07T12:46:44;98419.22;;;12.57;100.00
2184;BME280;1098;48.940;8.962;2023-04-07T12:49:12;98405.47;;;12.92;100.00
2184;BME280;1098;48.940;8.962;2023-04-07T12:51:40;98414.41;;;12.76;100.00
2184;BME280;1098;48.940;8.962;2023-04-07T12:54:08;98414.94;;;13.18;100.00
2184;BME280;1098;48.940;8.962;2023-04-07T12:56:38;98408.97;;;13.04;100.00
2184;BME280;1098;48.940;8.962;2023-04-07T12:59:07;98424.69;;;12.45;100.00
2184;BME280;1098;48.940;8.962;2023-04-07T13:01:36;98415.38;;;12.69;100.00
2184;BME280;1098;48.940;8.962;2023-04-07T13:04:04;98414.03;;;12.55;100.00
2184;BME280;1098;48.940;8.962;2023-04-07T13:06:32;98421.84;;;12.40;100.00
2184;BME280;1098;48.940;8.962;2023-04-07T13:09:00;98415.91;;;13.62;100.00
2184;BME280;1098;48.940;8.962;2023-04-07T13:11:28;98413.03;;;12.90;100.00
2184;BME280;1098;48.940;8.962;2023-04-07T13:13:58;98414.78;;;13.41;100.00
2184;BME280;1098;48.940;8.962;2023-04-07T13:16:27;98407.13;;;13.21;100.00
2184;BME280;1098;48.940;8.962;2023-04-07T13:18:58;98406.97;;;13.45;100.00
2184;BME280;1098;48.940;8.962;2023-04-07T13:21:26;98402.53;;;12.93;100.00
2184;BME280;1098;48.940;8.962;2023-04-07T13:24:12;98410.00;;;13.31;100.00
2184;BME280;1098;48.940;8.962;2023-04-07T13:26:40;98411.50;;;13.94;100.00
2184;BME280;1098;48.940;8.962;2023-04-07T13:29:10;98403.75;;;13.48;100.00
2184;BME280;1098;48.940;8.962;2023-04-07T13:31:38;98410.47;;;13.79;100.00
2184;BME280;1098;48.940;8.962;2023-04-07T13:34:06;98407.78;;;12.83;100.00
2184;BME280;1098;48.940;8.962;2023-04-07T13:36:36;98405.22;;;13.38;100.00
2184;BME280;1098;48.940;8.962;2023-04-07T13:39:04;98408.56;;;13.79;100.00